sensor_id;sensor_type;location;lat;lon;timestamp;P1;durP1;ratioP1;P2;durP2;ratioP2
80675;SDS011;70041;46.088;18.268;2023-10-09T00:00:50;5.43;;;1.58;;
80675;SDS011;70041;46.088;18.268;2023-10-09T00:03:19;6.32;;;1.60;;
80675;SDS011;70041;46.088;18.268;2023-10-09T00:05:48;6.43;;;1.60;;
80675;SDS011;70041;46.088;18.268;2023-10-09T00:08:17;4.32;;;1.40;;
80675;SDS011;70041;46.088;18.268;2023-10-09T00:10:55;5.45;;;1.80;;
80675;SDS011;70041;46.088;18.268;2023-10-09T00:13:24;5.68;;;1.70;;
80675;SDS011;70041;46.088;18.268;2023-10-09T00:15:57;7.50;;;1.75;;
80675;SDS011;70041;46.088;18.268;2023-10-09T00:18:34;5.38;;;1.48;;
80675;SDS011;70041;46.088;18.268;2023-10-09T00:21:01;6.07;;;1.40;;
80675;SDS011;70041;46.088;18.268;2023-10-09T00:23:40;4.72;;;1.65;;
80675;SDS011;70041;46.088;18.268;2023-10-09T00:26:06;4.80;;;1.40;;
80675;SDS011;70041;46.088;18.268;2023-10-09T00:28:41;5.80;;;1.85;;
80675;SDS011;70041;46.088;18.268;2023-10-09T00:31:08;3.92;;;1.50;;
80675;SDS011;70041;46.088;18.268;2023-10-09T00:33:40;5.35;;;1.83;;
80675;SDS011;70041;46.088;18.268;2023-10-09T00:36:06;5.95;;;1.70;;
80675;SDS011;70041;46.088;18.268;2023-10-09T00:38:38;4.35;;;1.40;;
80675;SDS011;70041;46.088;18.268;2023-10-09T00:41:16;5.68;;;1.67;;
80675;SDS011;70041;46.088;18.268;2023-10-09T00:43:49;9.07;;;1.70;;
80675;SDS011;70041;46.088;18.268;2023-10-09T00:46:16;5.40;;;1.50;;
80675;SDS011;70041;46.088;18.268;2023-10-09T00:48:46;6.28;;;1.55;;
80675;SDS011;70041;46.088;18.268;2023-10-09T00:51:13;4.13;;;1.40;;
80675;SDS011;70041;46.088;18.268;2023-10-09T00:53:47;5.07;;;1.63;;
80675;SDS011;70041;46.088;18.268;2023-10-09T00:56:22;5.70;;;1.63;;
80675;SDS011;70041;46.088;18.268;2023-10-09T00:58:51;5.28;;;1.50;;
80675;SDS011;70041;46.088;18.268;2023-10-09T01:01:21;7.15;;;1.60;;
80675;SDS011;70041;46.088;18.268;2023-10-09T01:03:53;5.90;;;1.80;;
80675;SDS011;70041;46.088;18.268;2023-10-09T01:06:19;4.45;;;1.60;;
80675;SDS011;70041;46.088;18.268;2023-10-09T01:08:46;5.60;;;1.50;;
80675;SDS011;70041;46.088;18.268;2023-10-09T01:11:30;5.65;;;1.73;;
80675;SDS011;70041;46.088;18.268;2023-10-09T01:13:56;6.07;;;1.90;;
80675;SDS011;70041;46.088;18.268;2023-10-09T01:16:33;7.03;;;1.58;;
80675;SDS011;70041;46.088;18.268;2023-10-09T01:18:59;6.57;;;2.00;;
80675;SDS011;70041;46.088;18.268;2023-10-09T01:21:26;6.15;;;1.92;;
80675;SDS011;70041;46.088;18.268;2023-10-09T01:23:54;5.68;;;1.60;;
80675;SDS011;70041;46.088;18.268;2023-10-09T01:29:19;5.50;;;1.70;;
80675;SDS011;70041;46.088;18.268;2023-10-09T01:31:49;5.32;;;1.70;;
80675;SDS011;70041;46.088;18.268;2023-10-09T01:34:25;6.32;;;1.95;;
80675;SDS011;70041;46.088;18.268;2023-10-09T01:37:07;5.13;;;1.65;;
80675;SDS011;70041;46.088;18.268;2023-10-09T01:39:40;6.57;;;1.90;;
80675;SDS011;70041;46.088;18.268;2023-10-09T01:42:07;7.30;;;2.05;;
80675;SDS011;70041;46.088;18.268;2023-10-09T01:44:32;5.72;;;1.98;;
80675;SDS011;70041;46.088;18.268;2023-10-09T01:47:08;6.43;;;1.67;;
80675;SDS011;70041;46.088;18.268;2023-10-09T01:49:34;6.20;;;1.93;;
80675;SDS011;70041;46.088;18.268;2023-10-09T01:52:02;5.28;;;1.52;;
80675;SDS011;70041;46.088;18.268;2023-10-09T01:54:37;5.65;;;1.60;;
80675;SDS011;70041;46.088;18.268;2023-10-09T01:57:04;4.75;;;1.63;;
80675;SDS011;70041;46.088;18.268;2023-10-09T01:59:49;6.57;;;1.83;;
80675;SDS011;70041;46.088;18.268;2023-10-09T02:02:15;5.75;;;1.98;;
80675;SDS011;70041;46.088;18.268;2023-10-09T02:07:38;5.32;;;1.80;;
80675;SDS011;70041;46.088;18.268;2023-10-09T02:10:16;5.13;;;1.88;;
80675;SDS011;70041;46.088;18.268;2023-10-09T02:13:02;5.53;;;1.57;;
80675;SDS011;70041;46.088;18.268;2023-10-09T02:15:32;5.78;;;1.90;;
80675;SDS011;70041;46.088;18.268;2023-10-09T02:18:29;5.60;;;1.60;;
80675;SDS011;70041;46.088;18.268;2023-10-09T02:23:27;6.40;;;1.60;;
80675;SDS011;70041;46.088;18.268;2023-10-09T02:26:13;5.43;;;1.60;;
80675;SDS011;70041;46.088;18.268;2023-10-09T02:28:52;6.00;;;1.80;;
80675;SDS011;70041;46.088;18.268;2023-10-09T02:31:27;5.65;;;1.80;;
80675;SDS011;70041;46.088;18.268;2023-10-09T02:34:00;5.38;;;1.55;;
80675;SDS011;70041;46.088;18.268;2023-10-09T02:36:30;6.10;;;1.85;;
80675;SDS011;70041;46.088;18.268;2023-10-09T02:38:56;7.93;;;1.90;;
80675;SDS011;70041;46.088;18.268;2023-10-09T02:41:21;5.87;;;1.70;;
80675;SDS011;70041;46.088;18.268;2023-10-09T02:43:53;5.00;;;1.27;;
80675;SDS011;70041;46.088;18.268;2023-10-09T02:46:20;4.18;;;1.45;;
80675;SDS011;70041;46.088;18.268;2023-10-09T02:48:54;5.85;;;1.50;;
80675;SDS011;70041;46.088;18.268;2023-10-09T02:51:24;5.15;;;1.63;;
80675;SDS011;70041;46.088;18.268;2023-10-09T02:53:53;4.87;;;1.60;;
80675;SDS011;70041;46.088;18.268;2023-10-09T02:56:21;5.72;;;1.65;;
80675;SDS011;70041;46.088;18.268;2023-10-09T02:58:53;5.72;;;1.40;;
80675;SDS011;70041;46.088;18.268;2023-10-09T03:01:19;7.78;;;1.92;;
80675;SDS011;70041;46.088;18.268;2023-10-09T03:03:44;6.27;;;1.53;;
80675;SDS011;70041;46.088;18.268;2023-10-09T03:06:14;5.72;;;1.60;;
80675;SDS011;70041;46.088;18.268;2023-10-09T03:08:48;5.57;;;1.50;;
80675;SDS011;70041;46.088;18.268;2023-10-09T03:11:13;5.90;;;1.33;;
80675;SDS011;70041;46.088;18.268;2023-10-09T03:13:40;5.00;;;1.40;;
80675;SDS011;70041;46.088;18.268;2023-10-09T03:16:08;5.82;;;1.70;;
80675;SDS011;70041;46.088;18.268;2023-10-09T03:18:37;4.55;;;1.30;;
80675;SDS011;70041;46.088;18.268;2023-10-09T03:21:02;4.27;;;1.10;;
80675;SDS011;70041;46.088;18.268;2023-10-09T03:23:28;4.43;;;1.40;;
80675;SDS011;70041;46.088;18.268;2023-10-09T03:25:54;5.65;;;1.50;;
80675;SDS011;70041;46.088;18.268;2023-10-09T03:28:20;5.57;;;1.42;;
80675;SDS011;70041;46.088;18.268;2023-10-09T03:30:46;6.57;;;1.70;;
80675;SDS011;70041;46.088;18.268;2023-10-09T03:33:13;4.57;;;1.50;;
80675;SDS011;70041;46.088;18.268;2023-10-09T03:35:39;5.95;;;1.90;;
80675;SDS011;70041;46.088;18.268;2023-10-09T03:38:05;4.77;;;1.60;;
80675;SDS011;70041;46.088;18.268;2023-10-09T03:40:42;4.65;;;1.38;;
80675;SDS011;70041;46.088;18.268;2023-10-09T03:43:11;5.22;;;1.67;;
80675;SDS011;70041;46.088;18.268;2023-10-09T03:45:37;4.25;;;1.60;;
80675;SDS011;70041;46.088;18.268;2023-10-09T03:48:04;5.07;;;1.63;;
80675;SDS011;70041;46.088;18.268;2023-10-09T03:50:51;5.28;;;1.50;;
80675;SDS011;70041;46.088;18.268;2023-10-09T03:53:33;3.45;;;1.42;;
80675;SDS011;70041;46.088;18.268;2023-10-09T03:56:01;3.88;;;1.30;;
80675;SDS011;70041;46.088;18.268;2023-10-09T03:58:36;8.20;;;1.92;;
80675;SDS011;70041;46.088;18.268;2023-10-09T04:01:11;6.85;;;1.63;;
80675;SDS011;70041;46.088;18.268;2023-10-09T04:03:49;4.88;;;1.63;;
80675;SDS011;70041;46.088;18.268;2023-10-09T04:06:28;8.27;;;1.70;;
80675;SDS011;70041;46.088;18.268;2023-10-09T04:08:58;5.70;;;1.67;;
80675;SDS011;70041;46.088;18.268;2023-10-09T04:11:26;5.15;;;1.70;;
80675;SDS011;70041;46.088;18.268;2023-10-09T04:13:52;4.57;;;1.48;;
80675;SDS011;70041;46.088;18.268;2023-10-09T04:16:21;6.85;;;1.73;;
80675;SDS011;70041;46.088;18.268;2023-10-09T04:18:56;6.80;;;2.10;;
80675;SDS011;70041;46.088;18.268;2023-10-09T04:21:22;8.45;;;2.05;;
80675;SDS011;70041;46.088;18.268;2023-10-09T04:24:04;6.35;;;2.05;;
80675;SDS011;70041;46.088;18.268;2023-10-09T04:26:39;7.03;;;2.10;;
80675;SDS011;70041;46.088;18.268;2023-10-09T04:29:12;8.77;;;2.15;;
80675;SDS011;70041;46.088;18.268;2023-10-09T04:31:51;5.22;;;1.80;;
80675;SDS011;70041;46.088;18.268;2023-10-09T04:34:24;5.60;;;1.90;;
80675;SDS011;70041;46.088;18.268;2023-10-09T04:36:50;8.95;;;2.40;;
80675;SDS011;70041;46.088;18.268;2023-10-09T04:39:21;10.45;;;2.38;;
80675;SDS011;70041;46.088;18.268;2023-10-09T04:41:58;7.53;;;2.10;;
80675;SDS011;70041;46.088;18.268;2023-10-09T04:44:43;6.15;;;1.60;;
80675;SDS011;70041;46.088;18.268;2023-10-09T04:47:30;4.65;;;1.77;;
80675;SDS011;70041;46.088;18.268;2023-10-09T04:50:10;6.30;;;2.05;;
80675;SDS011;70041;46.088;18.268;2023-10-09T04:52:54;8.60;;;2.17;;
80675;SDS011;70041;46.088;18.268;2023-10-09T04:55:19;6.57;;;1.97;;
80675;SDS011;70041;46.088;18.268;2023-10-09T04:57:50;6.50;;;1.80;;
80675;SDS011;70041;46.088;18.268;2023-10-09T05:00:34;5.85;;;1.85;;
80675;SDS011;70041;46.088;18.268;2023-10-09T05:03:02;6.13;;;2.10;;
80675;SDS011;70041;46.088;18.268;2023-10-09T05:05:37;6.25;;;1.70;;
80675;SDS011;70041;46.088;18.268;2023-10-09T05:08:06;5.50;;;1.60;;
80675;SDS011;70041;46.088;18.268;2023-10-09T05:10:49;5.25;;;1.77;;
80675;SDS011;70041;46.088;18.268;2023-10-09T05:16:06;6.85;;;2.10;;
80675;SDS011;70041;46.088;18.268;2023-10-09T05:18:45;8.52;;;2.25;;
80675;SDS011;70041;46.088;18.268;2023-10-09T05:21:21;10.23;;;2.43;;
80675;SDS011;70041;46.088;18.268;2023-10-09T05:24:08;7.20;;;2.30;;
80675;SDS011;70041;46.088;18.268;2023-10-09T05:26:41;7.35;;;2.10;;
80675;SDS011;70041;46.088;18.268;2023-10-09T05:31:57;7.28;;;2.95;;
80675;SDS011;70041;46.088;18.268;2023-10-09T05:34:38;6.17;;;2.03;;
80675;SDS011;70041;46.088;18.268;2023-10-09T05:37:23;6.03;;;1.95;;
80675;SDS011;70041;46.088;18.268;2023-10-09T05:39:57;6.68;;;2.10;;
80675;SDS011;70041;46.088;18.268;2023-10-09T05:42:44;8.50;;;2.00;;
80675;SDS011;70041;46.088;18.268;2023-10-09T05:45:14;7.63;;;1.95;;
80675;SDS011;70041;46.088;18.268;2023-10-09T05:47:51;7.30;;;2.03;;
80675;SDS011;70041;46.088;18.268;2023-10-09T05:50:29;6.90;;;2.10;;
80675;SDS011;70041;46.088;18.268;2023-10-09T05:52:58;10.70;;;2.15;;
80675;SDS011;70041;46.088;18.268;2023-10-09T05:55:27;7.65;;;2.20;;
80675;SDS011;70041;46.088;18.268;2023-10-09T05:58:12;7.45;;;2.00;;
80675;SDS011;70041;46.088;18.268;2023-10-09T06:01:10;6.67;;;1.93;;
80675;SDS011;70041;46.088;18.268;2023-10-09T06:03:55;9.90;;;2.22;;
80675;SDS011;70041;46.088;18.268;2023-10-09T06:06:41;5.93;;;2.10;;
80675;SDS011;70041;46.088;18.268;2023-10-09T06:09:09;7.22;;;2.05;;
80675;SDS011;70041;46.088;18.268;2023-10-09T06:11:56;8.00;;;2.42;;
80675;SDS011;70041;46.088;18.268;2023-10-09T06:14:41;5.27;;;2.03;;
80675;SDS011;70041;46.088;18.268;2023-10-09T06:17:23;8.57;;;2.17;;
80675;SDS011;70041;46.088;18.268;2023-10-09T06:19:49;9.50;;;3.45;;
80675;SDS011;70041;46.088;18.268;2023-10-09T06:22:15;10.65;;;4.10;;
80675;SDS011;70041;46.088;18.268;2023-10-09T06:25:15;10.33;;;2.60;;
80675;SDS011;70041;46.088;18.268;2023-10-09T06:27:43;10.70;;;2.30;;
80675;SDS011;70041;46.088;18.268;2023-10-09T06:30:12;7.93;;;2.20;;
80675;SDS011;70041;46.088;18.268;2023-10-09T06:32:37;7.47;;;2.67;;
80675;SDS011;70041;46.088;18.268;2023-10-09T06:35:11;5.93;;;2.13;;
80675;SDS011;70041;46.088;18.268;2023-10-09T06:38:02;8.75;;;2.63;;
80675;SDS011;70041;46.088;18.268;2023-10-09T06:40:32;8.67;;;2.20;;
80675;SDS011;70041;46.088;18.268;2023-10-09T06:43:01;13.90;;;2.20;;
80675;SDS011;70041;46.088;18.268;2023-10-09T06:45:34;7.35;;;2.00;;
80675;SDS011;70041;46.088;18.268;2023-10-09T06:48:08;8.13;;;1.83;;
80675;SDS011;70041;46.088;18.268;2023-10-09T06:50:54;8.75;;;2.17;;
80675;SDS011;70041;46.088;18.268;2023-10-09T06:53:32;7.80;;;2.03;;
80675;SDS011;70041;46.088;18.268;2023-10-09T06:56:17;8.55;;;2.42;;
80675;SDS011;70041;46.088;18.268;2023-10-09T06:59:08;6.18;;;2.08;;
80675;SDS011;70041;46.088;18.268;2023-10-09T07:01:46;6.22;;;1.95;;
80675;SDS011;70041;46.088;18.268;2023-10-09T07:04:16;6.03;;;2.10;;
80675;SDS011;70041;46.088;18.268;2023-10-09T07:06:45;6.27;;;2.10;;
80675;SDS011;70041;46.088;18.268;2023-10-09T07:09:11;9.35;;;3.00;;
80675;SDS011;70041;46.088;18.268;2023-10-09T07:11:38;6.07;;;2.03;;
80675;SDS011;70041;46.088;18.268;2023-10-09T07:14:05;9.48;;;2.42;;
80675;SDS011;70041;46.088;18.268;2023-10-09T07:17:03;13.30;;;3.25;;
80675;SDS011;70041;46.088;18.268;2023-10-09T07:19:42;12.90;;;3.00;;
80675;SDS011;70041;46.088;18.268;2023-10-09T07:22:09;8.57;;;2.70;;
80675;SDS011;70041;46.088;18.268;2023-10-09T07:25:01;8.48;;;2.65;;
80675;SDS011;70041;46.088;18.268;2023-10-09T07:27:52;6.20;;;2.10;;
80675;SDS011;70041;46.088;18.268;2023-10-09T07:30:21;8.85;;;2.45;;
80675;SDS011;70041;46.088;18.268;2023-10-09T07:35:48;5.78;;;2.10;;
80675;SDS011;70041;46.088;18.268;2023-10-09T07:38:25;9.18;;;2.58;;
80675;SDS011;70041;46.088;18.268;2023-10-09T07:41:00;7.15;;;1.90;;
80675;SDS011;70041;46.088;18.268;2023-10-09T07:43:32;6.70;;;1.98;;
80675;SDS011;70041;46.088;18.268;2023-10-09T07:46:12;5.87;;;2.00;;
80675;SDS011;70041;46.088;18.268;2023-10-09T07:48:57;7.35;;;2.10;;
80675;SDS011;70041;46.088;18.268;2023-10-09T07:51:35;7.53;;;2.40;;
80675;SDS011;70041;46.088;18.268;2023-10-09T07:54:01;7.78;;;1.80;;
80675;SDS011;70041;46.088;18.268;2023-10-09T07:56:36;5.38;;;1.95;;
80675;SDS011;70041;46.088;18.268;2023-10-09T07:59:11;6.30;;;2.00;;
80675;SDS011;70041;46.088;18.268;2023-10-09T08:01:49;8.15;;;1.95;;
80675;SDS011;70041;46.088;18.268;2023-10-09T08:04:23;5.50;;;1.70;;
80675;SDS011;70041;46.088;18.268;2023-10-09T08:07:13;4.55;;;1.52;;
80675;SDS011;70041;46.088;18.268;2023-10-09T08:09:47;5.88;;;1.55;;
80675;SDS011;70041;46.088;18.268;2023-10-09T08:12:13;5.93;;;1.70;;
80675;SDS011;70041;46.088;18.268;2023-10-09T08:15:01;6.72;;;1.80;;
80675;SDS011;70041;46.088;18.268;2023-10-09T08:20:28;5.80;;;1.90;;
80675;SDS011;70041;46.088;18.268;2023-10-09T08:23:23;4.97;;;1.67;;
80675;SDS011;70041;46.088;18.268;2023-10-09T08:26:04;4.77;;;1.80;;
80675;SDS011;70041;46.088;18.268;2023-10-09T08:28:39;7.75;;;1.98;;
80675;SDS011;70041;46.088;18.268;2023-10-09T08:31:14;7.57;;;1.92;;
80675;SDS011;70041;46.088;18.268;2023-10-09T08:33:59;5.85;;;1.60;;
80675;SDS011;70041;46.088;18.268;2023-10-09T08:36:26;5.75;;;1.90;;
80675;SDS011;70041;46.088;18.268;2023-10-09T08:39:04;6.10;;;1.80;;
80675;SDS011;70041;46.088;18.268;2023-10-09T08:41:50;5.40;;;1.50;;
80675;SDS011;70041;46.088;18.268;2023-10-09T08:44:21;5.00;;;1.50;;
80675;SDS011;70041;46.088;18.268;2023-10-09T08:46:50;6.38;;;1.60;;
80675;SDS011;70041;46.088;18.268;2023-10-09T08:49:15;6.63;;;2.00;;
80675;SDS011;70041;46.088;18.268;2023-10-09T08:51:42;6.63;;;1.40;;
80675;SDS011;70041;46.088;18.268;2023-10-09T08:54:07;5.77;;;1.53;;
80675;SDS011;70041;46.088;18.268;2023-10-09T08:56:36;6.10;;;1.80;;
80675;SDS011;70041;46.088;18.268;2023-10-09T08:59:04;5.18;;;1.60;;
80675;SDS011;70041;46.088;18.268;2023-10-09T09:01:30;5.30;;;1.77;;
80675;SDS011;70041;46.088;18.268;2023-10-09T09:03:57;7.10;;;1.70;;
80675;SDS011;70041;46.088;18.268;2023-10-09T09:06:26;6.45;;;1.80;;
80675;SDS011;70041;46.088;18.268;2023-10-09T09:09:09;5.95;;;1.63;;
80675;SDS011;70041;46.088;18.268;2023-10-09T09:11:41;6.28;;;1.70;;
80675;SDS011;70041;46.088;18.268;2023-10-09T09:14:14;7.43;;;1.57;;
80675;SDS011;70041;46.088;18.268;2023-10-09T09:16:44;6.63;;;1.63;;
80675;SDS011;70041;46.088;18.268;2023-10-09T09:19:13;4.35;;;1.30;;
80675;SDS011;70041;46.088;18.268;2023-10-09T09:21:49;6.90;;;1.60;;
80675;SDS011;70041;46.088;18.268;2023-10-09T09:24:35;7.63;;;1.67;;
80675;SDS011;70041;46.088;18.268;2023-10-09T09:27:02;6.17;;;1.70;;
80675;SDS011;70041;46.088;18.268;2023-10-09T09:32:03;7.07;;;2.23;;
80675;SDS011;70041;46.088;18.268;2023-10-09T09:34:48;8.20;;;2.42;;
80675;SDS011;70041;46.088;18.268;2023-10-09T09:37:20;10.30;;;2.50;;
80675;SDS011;70041;46.088;18.268;2023-10-09T09:39:49;8.65;;;2.67;;
80675;SDS011;70041;46.088;18.268;2023-10-09T09:42:18;7.43;;;2.97;;
80675;SDS011;70041;46.088;18.268;2023-10-09T09:44:49;9.10;;;2.60;;
80675;SDS011;70041;46.088;18.268;2023-10-09T09:47:16;8.80;;;2.60;;
80675;SDS011;70041;46.088;18.268;2023-10-09T09:49:48;8.73;;;2.53;;
80675;SDS011;70041;46.088;18.268;2023-10-09T09:52:16;7.50;;;2.42;;
80675;SDS011;70041;46.088;18.268;2023-10-09T09:54:43;6.78;;;2.20;;
80675;SDS011;70041;46.088;18.268;2023-10-09T09:57:09;7.57;;;2.53;;
80675;SDS011;70041;46.088;18.268;2023-10-09T09:59:38;7.25;;;2.08;;
80675;SDS011;70041;46.088;18.268;2023-10-09T10:02:06;7.00;;;1.90;;
80675;SDS011;70041;46.088;18.268;2023-10-09T10:04:36;8.60;;;1.77;;
80675;SDS011;70041;46.088;18.268;2023-10-09T10:07:04;7.03;;;2.50;;
80675;SDS011;70041;46.088;18.268;2023-10-09T10:09:37;7.13;;;2.00;;
80675;SDS011;70041;46.088;18.268;2023-10-09T10:12:07;7.45;;;1.73;;
80675;SDS011;70041;46.088;18.268;2023-10-09T10:14:52;7.40;;;1.83;;
80675;SDS011;70041;46.088;18.268;2023-10-09T10:17:22;6.82;;;1.60;;
80675;SDS011;70041;46.088;18.268;2023-10-09T10:22:25;9.60;;;2.00;;
80675;SDS011;70041;46.088;18.268;2023-10-09T10:24:55;6.78;;;2.17;;
80675;SDS011;70041;46.088;18.268;2023-10-09T10:27:26;6.72;;;1.70;;
80675;SDS011;70041;46.088;18.268;2023-10-09T10:35:16;8.13;;;2.00;;
80675;SDS011;70041;46.088;18.268;2023-10-09T10:37:45;7.30;;;1.90;;
80675;SDS011;70041;46.088;18.268;2023-10-09T10:40:23;6.50;;;1.80;;
80675;SDS011;70041;46.088;18.268;2023-10-09T10:43:04;5.93;;;1.40;;
80675;SDS011;70041;46.088;18.268;2023-10-09T10:45:44;7.32;;;2.00;;
80675;SDS011;70041;46.088;18.268;2023-10-09T10:48:10;7.10;;;1.80;;
80675;SDS011;70041;46.088;18.268;2023-10-09T10:50:48;6.97;;;1.55;;
80675;SDS011;70041;46.088;18.268;2023-10-09T10:53:22;5.88;;;1.60;;
80675;SDS011;70041;46.088;18.268;2023-10-09T10:56:01;6.35;;;1.67;;
80675;SDS011;70041;46.088;18.268;2023-10-09T10:58:43;6.00;;;1.58;;
80675;SDS011;70041;46.088;18.268;2023-10-09T11:01:32;5.43;;;1.70;;
80675;SDS011;70041;46.088;18.268;2023-10-09T11:04:17;5.70;;;1.50;;
80675;SDS011;70041;46.088;18.268;2023-10-09T11:06:59;7.00;;;1.60;;
80675;SDS011;70041;46.088;18.268;2023-10-09T11:09:43;7.78;;;1.85;;
80675;SDS011;70041;46.088;18.268;2023-10-09T11:12:23;5.75;;;1.70;;
80675;SDS011;70041;46.088;18.268;2023-10-09T11:14:50;5.20;;;1.37;;
80675;SDS011;70041;46.088;18.268;2023-10-09T11:17:35;6.90;;;1.85;;
80675;SDS011;70041;46.088;18.268;2023-10-09T11:20:03;7.75;;;1.70;;
80675;SDS011;70041;46.088;18.268;2023-10-09T11:22:50;7.63;;;2.00;;
80675;SDS011;70041;46.088;18.268;2023-10-09T11:25:35;6.28;;;1.88;;
80675;SDS011;70041;46.088;18.268;2023-10-09T11:28:03;5.50;;;1.83;;
80675;SDS011;70041;46.088;18.268;2023-10-09T11:30:48;6.05;;;1.90;;
80675;SDS011;70041;46.088;18.268;2023-10-09T11:33:20;9.68;;;2.17;;
80675;SDS011;70041;46.088;18.268;2023-10-09T11:35:56;7.57;;;2.03;;
80675;SDS011;70041;46.088;18.268;2023-10-09T11:38:22;4.50;;;1.80;;
80675;SDS011;70041;46.088;18.268;2023-10-09T11:40:49;7.93;;;2.10;;
80675;SDS011;70041;46.088;18.268;2023-10-09T11:43:17;6.65;;;2.03;;
80675;SDS011;70041;46.088;18.268;2023-10-09T11:45:48;6.07;;;1.92;;
80675;SDS011;70041;46.088;18.268;2023-10-09T11:48:20;7.55;;;2.47;;
80675;SDS011;70041;46.088;18.268;2023-10-09T11:50:51;7.93;;;2.60;;
80675;SDS011;70041;46.088;18.268;2023-10-09T11:53:41;7.30;;;2.07;;
80675;SDS011;70041;46.088;18.268;2023-10-09T11:56:21;8.68;;;2.05;;
80675;SDS011;70041;46.088;18.268;2023-10-09T11:58:47;7.30;;;2.25;;
80675;SDS011;70041;46.088;18.268;2023-10-09T12:01:18;8.32;;;2.47;;
80675;SDS011;70041;46.088;18.268;2023-10-09T12:03:48;6.13;;;1.95;;
80675;SDS011;70041;46.088;18.268;2023-10-09T12:06:18;5.87;;;1.70;;
80675;SDS011;70041;46.088;18.268;2023-10-09T12:08:45;9.27;;;2.28;;
80675;SDS011;70041;46.088;18.268;2023-10-09T12:11:14;5.78;;;2.08;;
80675;SDS011;70041;46.088;18.268;2023-10-09T12:13:53;7.43;;;1.90;;
80675;SDS011;70041;46.088;18.268;2023-10-09T12:16:21;8.27;;;1.85;;
80675;SDS011;70041;46.088;18.268;2023-10-09T12:18:52;9.47;;;2.00;;
80675;SDS011;70041;46.088;18.268;2023-10-09T12:21:21;5.60;;;1.73;;
80675;SDS011;70041;46.088;18.268;2023-10-09T12:23:48;5.50;;;1.85;;
80675;SDS011;70041;46.088;18.268;2023-10-09T12:26:13;6.23;;;1.97;;
80675;SDS011;70041;46.088;18.268;2023-10-09T12:28:42;5.88;;;1.88;;
80675;SDS011;70041;46.088;18.268;2023-10-09T12:31:11;7.05;;;2.10;;
80675;SDS011;70041;46.088;18.268;2023-10-09T12:33:46;6.50;;;1.90;;
80675;SDS011;70041;46.088;18.268;2023-10-09T12:36:12;7.80;;;2.23;;
80675;SDS011;70041;46.088;18.268;2023-10-09T12:38:48;5.40;;;2.17;;
80675;SDS011;70041;46.088;18.268;2023-10-09T12:41:23;9.40;;;2.30;;
80675;SDS011;70041;46.088;18.268;2023-10-09T12:43:58;7.32;;;2.20;;
80675;SDS011;70041;46.088;18.268;2023-10-09T12:46:24;6.50;;;2.23;;
80675;SDS011;70041;46.088;18.268;2023-10-09T12:48:50;6.80;;;1.90;;
80675;SDS011;70041;46.088;18.268;2023-10-09T12:51:19;7.72;;;2.33;;
80675;SDS011;70041;46.088;18.268;2023-10-09T12:53:46;6.07;;;1.90;;
80675;SDS011;70041;46.088;18.268;2023-10-09T12:56:21;9.27;;;2.87;;
80675;SDS011;70041;46.088;18.268;2023-10-09T12:59:02;8.32;;;2.72;;
80675;SDS011;70041;46.088;18.268;2023-10-09T13:01:30;8.48;;;2.33;;
80675;SDS011;70041;46.088;18.268;2023-10-09T13:04:00;7.13;;;2.13;;
80675;SDS011;70041;46.088;18.268;2023-10-09T13:06:26;10.85;;;2.80;;
80675;SDS011;70041;46.088;18.268;2023-10-09T13:08:52;9.63;;;2.90;;
80675;SDS011;70041;46.088;18.268;2023-10-09T13:11:21;7.25;;;2.88;;
80675;SDS011;70041;46.088;18.268;2023-10-09T13:13:47;7.43;;;2.20;;
80675;SDS011;70041;46.088;18.268;2023-10-09T13:16:18;8.93;;;2.20;;
80675;SDS011;70041;46.088;18.268;2023-10-09T13:18:50;8.40;;;2.40;;
80675;SDS011;70041;46.088;18.268;2023-10-09T13:21:19;5.80;;;2.20;;
80675;SDS011;70041;46.088;18.268;2023-10-09T13:23:52;7.22;;;2.40;;
80675;SDS011;70041;46.088;18.268;2023-10-09T13:26:20;8.07;;;2.30;;
80675;SDS011;70041;46.088;18.268;2023-10-09T13:28:58;6.35;;;2.38;;
80675;SDS011;70041;46.088;18.268;2023-10-09T13:31:24;8.27;;;2.40;;
80675;SDS011;70041;46.088;18.268;2023-10-09T13:33:51;7.03;;;2.00;;
80675;SDS011;70041;46.088;18.268;2023-10-09T13:36:23;10.20;;;2.22;;
80675;SDS011;70041;46.088;18.268;2023-10-09T13:38:55;9.95;;;2.40;;
80675;SDS011;70041;46.088;18.268;2023-10-09T13:41:43;7.90;;;1.70;;
80675;SDS011;70041;46.088;18.268;2023-10-09T13:44:09;6.07;;;1.90;;
80675;SDS011;70041;46.088;18.268;2023-10-09T13:46:34;6.57;;;1.73;;
80675;SDS011;70041;46.088;18.268;2023-10-09T13:49:06;7.35;;;2.10;;
80675;SDS011;70041;46.088;18.268;2023-10-09T13:51:37;6.75;;;1.73;;
80675;SDS011;70041;46.088;18.268;2023-10-09T13:54:12;7.32;;;1.90;;
80675;SDS011;70041;46.088;18.268;2023-10-09T13:57:04;6.13;;;1.90;;
80675;SDS011;70041;46.088;18.268;2023-10-09T13:59:31;6.57;;;1.80;;
80675;SDS011;70041;46.088;18.268;2023-10-09T14:01:57;9.35;;;1.73;;
80675;SDS011;70041;46.088;18.268;2023-10-09T14:04:24;7.85;;;1.90;;
80675;SDS011;70041;46.088;18.268;2023-10-09T14:06:50;6.07;;;1.90;;
80675;SDS011;70041;46.088;18.268;2023-10-09T14:09:26;7.53;;;2.05;;
80675;SDS011;70041;46.088;18.268;2023-10-09T14:12:18;6.03;;;2.20;;
80675;SDS011;70041;46.088;18.268;2023-10-09T14:14:46;9.70;;;2.03;;
80675;SDS011;70041;46.088;18.268;2023-10-09T14:17:19;6.60;;;1.87;;
80675;SDS011;70041;46.088;18.268;2023-10-09T14:19:48;7.85;;;2.13;;
80675;SDS011;70041;46.088;18.268;2023-10-09T14:22:19;8.57;;;1.90;;
80675;SDS011;70041;46.088;18.268;2023-10-09T14:24:46;6.85;;;1.90;;
80675;SDS011;70041;46.088;18.268;2023-10-09T14:27:16;5.10;;;1.87;;
80675;SDS011;70041;46.088;18.268;2023-10-09T14:29:45;7.55;;;1.85;;
80675;SDS011;70041;46.088;18.268;2023-10-09T14:32:11;5.03;;;1.77;;
80675;SDS011;70041;46.088;18.268;2023-10-09T14:34:43;8.77;;;2.13;;
80675;SDS011;70041;46.088;18.268;2023-10-09T14:37:15;7.75;;;2.05;;
80675;SDS011;70041;46.088;18.268;2023-10-09T14:39:41;6.93;;;1.70;;
80675;SDS011;70041;46.088;18.268;2023-10-09T14:42:07;6.35;;;1.67;;
80675;SDS011;70041;46.088;18.268;2023-10-09T14:44:36;11.32;;;2.13;;
80675;SDS011;70041;46.088;18.268;2023-10-09T14:47:03;6.78;;;1.98;;
80675;SDS011;70041;46.088;18.268;2023-10-09T14:49:32;9.55;;;2.03;;
80675;SDS011;70041;46.088;18.268;2023-10-09T14:52:02;6.57;;;1.63;;
80675;SDS011;70041;46.088;18.268;2023-10-09T14:54:33;6.28;;;1.90;;
80675;SDS011;70041;46.088;18.268;2023-10-09T14:56:59;7.25;;;1.85;;
80675;SDS011;70041;46.088;18.268;2023-10-09T14:59:24;6.93;;;1.80;;
80675;SDS011;70041;46.088;18.268;2023-10-09T15:01:50;8.25;;;1.88;;
80675;SDS011;70041;46.088;18.268;2023-10-09T15:04:19;5.27;;;1.80;;
80675;SDS011;70041;46.088;18.268;2023-10-09T15:06:45;7.25;;;2.28;;
80675;SDS011;70041;46.088;18.268;2023-10-09T15:09:14;8.23;;;1.73;;
80675;SDS011;70041;46.088;18.268;2023-10-09T15:11:55;5.28;;;1.75;;
80675;SDS011;70041;46.088;18.268;2023-10-09T15:14:20;7.73;;;1.60;;
80675;SDS011;70041;46.088;18.268;2023-10-09T15:16:46;6.55;;;1.58;;
80675;SDS011;70041;46.088;18.268;2023-10-09T15:19:12;6.05;;;1.58;;
80675;SDS011;70041;46.088;18.268;2023-10-09T15:21:39;5.03;;;1.57;;
80675;SDS011;70041;46.088;18.268;2023-10-09T15:24:11;7.18;;;1.73;;
80675;SDS011;70041;46.088;18.268;2023-10-09T15:26:50;6.45;;;1.77;;
80675;SDS011;70041;46.088;18.268;2023-10-09T15:29:22;7.53;;;1.35;;
80675;SDS011;70041;46.088;18.268;2023-10-09T15:31:54;6.13;;;1.90;;
80675;SDS011;70041;46.088;18.268;2023-10-09T15:34:20;8.03;;;2.00;;
80675;SDS011;70041;46.088;18.268;2023-10-09T15:36:46;8.52;;;1.83;;